Time;durP1;ratioP1;P1;durP2;ratioP2;P2;SDS_P1;SDS_P2;PMS_P1;PMS_P2;Temp;Humidity;BMP_temperature;BMP_pressure;BME280_temperature;BME280_humidity;BME280_pressure;Samples;Min_cycle;Max_cycle;Signal;HPM_P1;HPM_P2
2023/12/30 00:01:04;;;;;;;11.38;0.98;;;6.80;99.90;;;;;;5010214;28;20150;-65
2023/12/30 00:03:30;;;;;;;6.65;0.82;;;6.80;99.90;;;;;;5028496;28;20386;-65
2023/12/30 00:05:56;;;;;;;10.50;1.73;;;6.80;99.90;;;;;;5033287;28;20050;-65
2023/12/30 00:08:21;;;;;;;7.10;1.40;;;6.80;99.90;;;;;;5032659;28;20476;-65
2023/12/30 00:10:47;;;;;;;8.37;1.03;;;6.80;99.90;;;;;;5030284;28;20528;-65
2023/12/30 00:13:12;;;;;;;9.50;0.70;;;6.80;99.90;;;;;;5032254;28;20046;-65
2023/12/30 00:15:38;;;;;;;6.97;1.07;;;6.80;99.90;;;;;;5032437;28;20501;-64
2023/12/30 00:18:04;;;;;;;6.77;0.70;;;6.80;99.90;;;;;;5031366;28;20045;-65
2023/12/30 00:20:29;;;;;;;7.30;1.23;;;6.80;99.90;;;;;;5031319;28;20040;-64
2023/12/30 00:22:55;;;;;;;10.97;0.93;;;6.80;99.90;;;;;;5030825;28;20280;-65
2023/12/30 00:25:22;;;;;;;7.67;0.53;;;6.80;99.90;;;;;;5031459;28;20417;-65
2023/12/30 00:27:49;;;;;;;6.13;1.05;;;6.80;99.90;;;;;;5032188;28;20042;-65
2023/12/30 00:30:15;;;;;;;8.18;1.52;;;6.70;99.90;;;;;;5028672;28;20481;-64
2023/12/30 00:32:40;;;;;;;9.93;0.82;;;6.70;99.90;;;;;;5038044;28;20034;-65
2023/12/30 00:35:09;;;;;;;7.72;0.75;;;6.70;99.90;;;;;;5033947;28;20087;-65
2023/12/30 00:37:35;;;;;;;6.75;0.68;;;6.70;99.90;;;;;;5030609;28;20040;-64
2023/12/30 00:40:01;;;;;;;13.13;0.95;;;6.70;99.90;;;;;;5030938;28;20041;-64
2023/12/30 00:42:26;;;;;;;9.50;0.80;;;6.70;99.90;;;;;;5030201;28;20037;-65
2023/12/30 00:44:52;;;;;;;7.70;1.03;;;6.70;99.90;;;;;;5031813;28;20405;-65
2023/12/30 00:47:18;;;;;;;10.70;1.03;;;6.70;99.90;;;;;;5030433;28;20041;-65
2023/12/30 00:49:44;;;;;;;7.57;0.77;;;6.70;99.90;;;;;;5031765;28;20034;-65
2023/12/30 00:52:10;;;;;;;6.50;0.50;;;6.70;99.90;;;;;;5030900;28;20427;-65
2023/12/30 00:54:36;;;;;;;7.03;1.08;;;6.60;99.90;;;;;;5031480;28;20049;-65
2023/12/30 00:57:02;;;;;;;7.15;0.88;;;6.60;99.90;;;;;;5031369;28;20033;-64
2023/12/30 00:59:28;;;;;;;7.47;0.93;;;6.60;99.90;;;;;;5029432;28;20114;-65
2023/12/30 01:01:53;;;;;;;10.80;1.47;;;6.60;99.90;;;;;;5030869;28;20072;-65
2023/12/30 01:04:19;;;;;;;6.83;0.73;;;6.60;99.90;;;;;;5028828;28;20284;-65
2023/12/30 01:06:45;;;;;;;13.07;1.33;;;6.60;99.90;;;;;;5036324;28;20107;-64
2023/12/30 01:09:10;;;;;;;8.77;0.90;;;6.60;99.90;;;;;;5030598;28;20280;-64
2023/12/30 01:11:36;;;;;;;7.47;1.07;;;6.60;99.90;;;;;;5030871;28;20053;-64
2023/12/30 01:14:01;;;;;;;7.07;1.43;;;6.60;99.90;;;;;;5031147;28;20448;-64
2023/12/30 01:16:27;;;;;;;12.07;1.10;;;6.60;99.90;;;;;;5029505;28;20073;-64
2023/12/30 01:18:53;;;;;;;7.53;0.73;;;6.60;99.90;;;;;;5029280;28;20033;-64
2023/12/30 01:21:19;;;;;;;7.20;0.70;;;6.50;99.90;;;;;;5029156;28;20506;-64
2023/12/30 01:23:44;;;;;;;11.68;0.95;;;6.60;99.90;;;;;;5028898;28;20272;-64
2023/12/30 01:26:10;;;;;;;7.10;0.83;;;6.60;99.90;;;;;;5030177;28;20111;-64
2023/12/30 01:28:36;;;;;;;5.47;0.98;;;6.60;99.90;;;;;;5029104;28;20037;-65
2023/12/30 01:31:02;;;;;;;;;;;6.60;99.90;;;;;;5023197;28;20518;-65
2023/12/30 01:33:28;;;;;;;4.10;0.55;;;6.60;99.90;;;;;;5028355;28;20026;-64
2023/12/30 01:35:55;;;;;;;9.32;1.33;;;6.60;99.90;;;;;;5030132;28;20088;-65
2023/12/30 01:38:20;;;;;;;9.55;0.95;;;6.60;99.90;;;;;;5028734;28;20087;-64
2023/12/30 01:40:46;;;;;;;9.53;1.23;;;6.60;99.90;;;;;;5029557;28;20124;-64
2023/12/30 01:43:26;;;;;;;6.72;1.35;;;6.60;99.90;;;;;;5029541;28;20249;-64
2023/12/30 01:46:03;;;;;;;10.98;0.65;;;6.60;99.90;;;;;;5030327;28;20046;-65
2023/12/30 01:48:29;;;;;;;7.28;1.27;;;6.60;99.90;;;;;;5029910;28;20041;-65
2023/12/30 01:50:57;;;;;;;9.70;1.23;;;6.50;99.90;;;;;;5029702;28;20062;-65
2023/12/30 01:53:26;;;;;;;5.45;0.65;;;6.50;99.90;;;;;;5029516;28;20104;-64
2023/12/30 01:55:52;;;;;;;6.03;1.05;;;6.50;99.90;;;;;;5029577;28;20045;-65
2023/12/30 01:58:20;;;;;;;12.65;1.52;;;6.50;99.90;;;;;;5011519;28;20045;-65
2023/12/30 02:00:48;;;;;;;3.58;1.08;;;6.50;99.90;;;;;;5011629;28;20493;-65
2023/12/30 02:03:15;;;;;;;5.55;0.75;;;6.50;99.90;;;;;;5029314;28;20044;-65
2023/12/30 02:05:42;;;;;;;7.72;1.80;;;6.40;99.90;;;;;;5029555;28;20049;-65
2023/12/30 02:08:08;;;;;;;7.35;1.20;;;6.40;99.90;;;;;;5028924;28;20421;-65
2023/12/30 02:10:34;;;;;;;;;;;6.40;99.90;;;;;;5028795;28;20037;-65
2023/12/30 02:12:59;;;;;;;6.10;0.82;;;6.40;99.90;;;;;;5028792;28;19991;-65
2023/12/30 02:15:25;;;;;;;8.07;0.93;;;6.40;99.90;;;;;;5029889;28;20037;-65
2023/12/30 02:17:54;;;;;;;5.80;0.37;;;6.40;99.90;;;;;;5029111;28;20060;-65
2023/12/30 02:20:20;;;;;;;3.42;0.50;;;6.30;99.90;;;;;;5027532;28;20515;-65
2023/12/30 02:22:47;;;;;;;7.45;1.15;;;6.30;99.90;;;;;;5028324;28;20588;-65
2023/12/30 02:25:13;;;;;;;9.13;0.73;;;6.30;99.90;;;;;;5027911;28;20472;-64
2023/12/30 02:27:41;;;;;;;11.02;0.70;;;6.30;99.90;;;;;;5028763;28;20562;-65
2023/12/30 02:30:07;;;;;;;8.73;0.80;;;6.30;99.90;;;;;;5027999;28;20513;-65
2023/12/30 02:32:32;;;;;;;8.55;0.82;;;6.30;99.90;;;;;;5023159;28;20052;-65
2023/12/30 02:34:58;;;;;;;8.73;1.00;;;6.20;99.90;;;;;;5028238;28;20544;-64
2023/12/30 02:37:23;;;;;;;11.93;0.70;;;6.20;99.90;;;;;;5027818;28;20041;-64
2023/12/30 02:39:49;;;;;;;10.43;1.00;;;6.20;99.90;;;;;;5029577;28;20418;-64
2023/12/30 02:42:14;;;;;;;6.23;0.57;;;6.20;99.90;;;;;;5028322;28;20116;-65
2023/12/30 02:44:40;;;;;;;7.20;0.77;;;6.20;99.90;;;;;;5028734;28;20051;-65
2023/12/30 02:47:06;;;;;;;7.43;0.80;;;6.20;99.90;;;;;;5027443;28;20041;-65
2023/12/30 02:49:32;;;;;;;8.87;1.57;;;6.10;99.90;;;;;;5028548;28;20461;-65
2023/12/30 02:51:58;;;;;;;7.13;0.90;;;6.10;99.90;;;;;;5028758;28;20304;-65
2023/12/30 02:54:24;;;;;;;6.47;0.93;;;6.10;99.90;;;;;;5028540;28;20104;-65
2023/12/30 02:56:49;;;;;;;9.90;1.07;;;6.10;99.90;;;;;;5028514;28;20041;-65
2023/12/30 02:59:15;;;;;;;8.47;1.23;;;6.10;99.90;;;;;;5028483;28;20054;-65
2023/12/30 03:01:40;;;;;;;4.73;1.00;;;6.10;99.90;;;;;;5010377;28;20489;-64
2023/12/30 03:04:06;;;;;;;3.93;0.70;;;6.10;99.90;;;;;;5027958;28;20096;-65
2023/12/30 03:06:32;;;;;;;8.85;1.02;;;6.10;99.90;;;;;;5015146;28;20276;-65
2023/12/30 03:08:58;;;;;;;12.77;1.37;;;6.10;99.90;;;;;;5030547;28;20041;-65
2023/12/30 03:11:23;;;;;;;11.53;1.47;;;6.00;99.90;;;;;;5031790;28;20518;-65
2023/12/30 03:13:49;;;;;;;9.15;1.52;;;6.00;99.90;;;;;;5032186;28;20057;-65
2023/12/30 03:16:15;;;;;;;6.57;0.70;;;6.00;99.90;;;;;;5037230;28;20061;-64
2023/12/30 03:18:42;;;;;;;10.47;1.00;;;6.00;99.90;;;;;;5036328;28;20069;-65
2023/12/30 03:21:09;;;;;;;7.28;1.38;;;6.00;99.90;;;;;;5032208;28;20083;-65
2023/12/30 03:23:36;;;;;;;9.52;1.17;;;6.00;99.90;;;;;;5031604;28;20514;-64
2023/12/30 03:26:02;;;;;;;7.90;1.02;;;6.00;99.90;;;;;;5029915;28;20049;-64
2023/12/30 03:28:28;;;;;;;9.30;0.98;;;6.00;99.90;;;;;;5030100;28;20137;-65
2023/12/30 03:30:54;;;;;;;3.35;0.60;;;5.90;99.90;;;;;;5030526;28;20464;-65
2023/12/30 03:33:19;;;;;;;8.02;1.58;;;5.90;99.90;;;;;;5026995;28;20048;-64
2023/12/30 03:35:45;;;;;;;7.03;1.00;;;5.90;99.90;;;;;;5031129;28;20041;-64
2023/12/30 03:38:11;;;;;;;9.75;1.20;;;5.90;99.90;;;;;;5056425;28;20267;-64
2023/12/30 03:40:37;;;;;;;6.70;1.20;;;5.90;99.90;;;;;;5030737;28;20037;-65
2023/12/30 03:43:03;;;;;;;15.23;1.00;;;5.90;99.90;;;;;;5030107;28;20049;-65
2023/12/30 03:45:29;;;;;;;10.10;0.70;;;5.90;99.90;;;;;;5031791;28;20084;-65
2023/12/30 03:47:55;;;;;;;8.27;0.90;;;6.00;99.90;;;;;;5031094;28;20056;-65
2023/12/30 03:50:20;;;;;;;12.63;1.35;;;5.90;99.90;;;;;;5030459;28;20104;-65
2023/12/30 03:52:46;;;;;;;13.52;1.58;;;5.90;99.90;;;;;;5030575;28;20033;-65
2023/12/30 03:55:12;;;;;;;11.68;1.17;;;6.00;99.90;;;;;;5030642;28;20048;-65
2023/12/30 03:57:38;;;;;;;11.38;1.35;;;6.00;99.90;;;;;;5030870;28;20056;-65
2023/12/30 04:00:04;;;;;;;10.70;1.50;;;6.00;99.90;;;;;;5031148;28;20414;-65
2023/12/30 04:02:30;;;;;;;6.55;1.05;;;6.00;99.90;;;;;;5029654;28;20501;-65
2023/12/30 04:04:56;;;;;;;6.68;1.15;;;6.00;99.90;;;;;;5030769;28;20116;-65
2023/12/30 04:07:21;;;;;;;8.20;1.43;;;6.00;99.90;;;;;;5031020;28;20461;-65
2023/12/30 04:09:47;;;;;;;6.57;0.60;;;6.00;99.90;;;;;;5030265;28;20055;-65
2023/12/30 04:12:13;;;;;;;9.50;0.73;;;6.00;99.90;;;;;;5031065;28;20037;-65
2023/12/30 04:14:38;;;;;;;10.47;1.43;;;6.00;99.90;;;;;;5030829;28;20041;-65
2023/12/30 04:17:04;;;;;;;10.63;1.27;;;6.00;99.90;;;;;;5029975;28;20132;-65
2023/12/30 04:19:29;;;;;;;10.67;1.97;;;6.00;99.90;;;;;;5029713;28;20121;-65
2023/12/30 04:21:55;;;;;;;8.57;0.73;;;6.00;99.90;;;;;;5030344;28;20049;-65
2023/12/30 04:24:22;;;;;;;8.23;1.77;;;6.00;99.90;;;;;;5028303;28;20041;-65
2023/12/30 04:26:49;;;;;;;13.07;1.80;;;6.00;99.90;;;;;;5030487;28;20060;-65
2023/12/30 04:29:15;;;;;;;12.95;1.08;;;6.00;99.90;;;;;;5029858;28;20888;-65
2023/12/30 04:31:41;;;;;;;13.60;1.73;;;6.00;99.90;;;;;;5039672;28;20037;-65
2023/12/30 04:34:06;;;;;;;13.00;0.97;;;6.00;99.90;;;;;;5028055;28;20041;-65
2023/12/30 04:36:32;;;;;;;7.80;1.10;;;6.00;99.90;;;;;;5028697;28;20041;-65
2023/12/30 04:38:58;;;;;;;6.13;1.13;;;5.90;99.90;;;;;;5028213;28;20132;-64
2023/12/30 04:41:23;;;;;;;13.97;1.30;;;5.90;99.90;;;;;;5030614;28;20049;-65
2023/12/30 04:43:49;;;;;;;9.80;1.47;;;5.90;99.90;;;;;;5031543;28;20034;-65
2023/12/30 04:46:15;;;;;;;8.00;1.30;;;5.90;99.90;;;;;;5031171;28;20125;-65
2023/12/30 04:48:40;;;;;;;13.47;2.03;;;5.90;99.90;;;;;;5030909;28;20762;-64
2023/12/30 04:51:06;;;;;;;14.53;1.53;;;5.90;99.90;;;;;;5031006;28;20043;-65
2023/12/30 04:53:32;;;;;;;9.90;1.60;;;5.90;99.90;;;;;;5030300;28;20034;-65
2023/12/30 04:55:58;;;;;;;;;;;5.80;99.90;;;;;;5029992;28;20622;-64
2023/12/30 04:58:24;;;;;;;11.30;1.05;;;5.90;99.90;;;;;;5030318;28;19921;-65
2023/12/30 05:00:49;;;;;;;7.60;0.95;;;5.90;99.90;;;;;;5035285;28;20125;-64
2023/12/30 05:03:16;;;;;;;10.40;1.43;;;5.90;99.90;;;;;;5033810;28;20045;-65
2023/12/30 05:05:42;;;;;;;16.75;1.80;;;5.90;99.90;;;;;;5027135;28;20215;-64
2023/12/30 05:08:07;;;;;;;7.13;1.20;;;5.90;99.90;;;;;;5030564;28;20445;-64
2023/12/30 05:10:33;;;;;;;10.45;1.38;;;5.80;99.90;;;;;;5029789;28;20041;-64
2023/12/30 05:13:03;;;;;;;8.98;1.25;;;5.80;99.90;;;;;;5030247;28;20435;-64
2023/12/30 05:15:28;;;;;;;11.07;1.35;;;5.80;99.90;;;;;;5028982;28;20033;-65
2023/12/30 05:17:54;;;;;;;13.80;1.57;;;5.80;99.90;;;;;;5028227;28;20060;-65
2023/12/30 05:20:20;;;;;;;14.40;1.57;;;5.80;99.90;;;;;;5030102;28;20033;-64
2023/12/30 05:22:46;;;;;;;7.83;1.47;;;5.80;99.90;;;;;;5029659;28;20749;-64
2023/12/30 05:25:11;;;;;;;9.82;1.58;;;5.80;99.90;;;;;;5028117;28;20095;-64
2023/12/30 05:27:37;;;;;;;10.27;2.05;;;5.80;99.90;;;;;;5028621;28;20046;-64
2023/12/30 05:30:07;;;;;;;14.15;1.70;;;5.80;99.90;;;;;;5030324;28;20047;-64
2023/12/30 05:32:33;;;;;;;7.30;1.05;;;5.80;99.90;;;;;;5029120;28;20117;-64
2023/12/30 05:34:59;;;;;;;10.73;1.67;;;5.80;99.90;;;;;;5029405;28;20037;-65
2023/12/30 05:37:25;;;;;;;14.17;1.50;;;5.80;99.90;;;;;;5024321;28;20045;-64
2023/12/30 05:39:51;;;;;;;11.20;1.17;;;5.80;99.90;;;;;;5029139;28;20452;-65
2023/12/30 05:42:16;;;;;;;10.25;0.82;;;5.80;99.90;;;;;;5027499;28;20149;-64
2023/12/30 05:44:42;;;;;;;7.80;1.00;;;5.80;99.90;;;;;;5029075;28;20084;-65
2023/12/30 05:47:08;;;;;;;8.65;1.58;;;5.80;99.90;;;;;;5029076;28;20045;-64
2023/12/30 05:49:35;;;;;;;14.00;1.37;;;5.80;99.90;;;;;;5029741;28;20405;-64
2023/12/30 05:52:01;;;;;;;28.05;2.17;;;5.80;99.90;;;;;;5028006;28;20508;-65
2023/12/30 05:54:28;;;;;;;11.75;1.20;;;5.80;99.90;;;;;;5027584;28;20042;-65
2023/12/30 05:56:54;;;;;;;18.52;1.00;;;5.90;99.90;;;;;;5028658;28;20037;-64
2023/12/30 05:59:20;;;;;;;8.70;1.27;;;5.90;99.90;;;;;;5030008;28;20396;-65
2023/12/30 06:01:46;;;;;;;9.75;1.20;;;5.90;99.90;;;;;;5027424;28;20128;-65
2023/12/30 06:04:13;;;;;;;10.73;1.83;;;5.90;99.90;;;;;;5029603;28;20060;-65
2023/12/30 06:06:38;;;;;;;13.75;1.73;;;5.90;99.90;;;;;;5027839;28;20077;-65
2023/12/30 06:09:04;;;;;;;10.27;1.20;;;5.90;99.90;;;;;;5029465;28;20536;-65
2023/12/30 06:11:29;;;;;;;17.07;2.07;;;5.90;99.90;;;;;;5030498;28;20041;-65
2023/12/30 06:13:55;;;;;;;9.30;1.17;;;5.90;99.90;;;;;;5011364;28;20045;-65
2023/12/30 06:16:21;;;;;;;9.45;1.20;;;5.90;99.90;;;;;;5027449;28;20041;-65
2023/12/30 06:18:46;;;;;;;11.15;2.10;;;5.90;99.90;;;;;;5028036;28;20033;-65
2023/12/30 06:21:12;;;;;;;12.40;2.30;;;5.90;99.90;;;;;;5028401;28;20510;-65
2023/12/30 06:23:38;;;;;;;12.40;1.30;;;5.90;99.90;;;;;;5028144;28;20041;-65
2023/12/30 06:26:03;;;;;;;8.80;1.30;;;5.80;99.90;;;;;;5028346;28;20257;-65
2023/12/30 06:28:29;;;;;;;10.37;1.07;;;5.90;99.90;;;;;;5027143;28;20049;-65
2023/12/30 06:30:55;;;;;;;8.17;1.40;;;5.90;99.90;;;;;;5027255;28;20280;-65
2023/12/30 06:33:22;;;;;;;6.28;0.77;;;5.80;99.90;;;;;;5028125;28;20049;-65
2023/12/30 06:35:48;;;;;;;7.22;1.08;;;5.90;99.90;;;;;;5028631;28;20037;-65
2023/12/30 06:38:17;;;;;;;15.07;1.60;;;5.80;99.90;;;;;;5026231;28;20045;-64
2023/12/30 06:40:45;;;;;;;12.50;1.85;;;5.80;99.90;;;;;;5025884;28;20498;-65
2023/12/30 06:43:13;;;;;;;12.68;2.13;;;5.80;99.90;;;;;;5030477;28;20049;-65
2023/12/30 06:45:39;;;;;;;10.68;1.38;;;5.80;99.90;;;;;;5030752;28;20041;-65
2023/12/30 06:48:05;;;;;;;17.30;1.30;;;5.80;99.90;;;;;;5031974;28;20096;-65
2023/12/30 06:50:31;;;;;;;6.57;1.00;;;5.80;99.90;;;;;;5032597;28;20127;-65
2023/12/30 06:52:58;;;;;;;13.17;1.23;;;5.80;99.90;;;;;;5031394;28;20128;-65
2023/12/30 06:55:23;;;;;;;6.80;0.88;;;5.80;99.90;;;;;;5031284;28;20170;-65
2023/12/30 06:57:49;;;;;;;10.53;1.50;;;5.70;99.90;;;;;;5030420;28;20033;-65
2023/12/30 07:00:15;;;;;;;7.03;1.33;;;5.80;99.90;;;;;;5031822;28;20049;-65
2023/12/30 07:02:41;;;;;;;10.93;0.73;;;5.70;99.90;;;;;;5032147;28;20033;-65
2023/12/30 07:05:11;;;;;;;8.65;1.15;;;5.80;99.90;;;;;;5030600;28;20507;-65
2023/12/30 07:07:37;;;;;;;10.10;1.23;;;5.70;99.90;;;;;;5030292;28;20756;-65
2023/12/30 07:10:06;;;;;;;7.07;1.30;;;5.70;99.90;;;;;;5030640;28;20120;-65
2023/12/30 07:12:32;;;;;;;5.50;1.35;;;5.70;99.90;;;;;;5030977;28;20046;-65
2023/12/30 07:14:58;;;;;;;7.53;1.00;;;5.70;99.90;;;;;;5031820;28;20049;-64
2023/12/30 07:17:25;;;;;;;12.07;1.20;;;5.80;99.90;;;;;;5030636;28;20050;-65
2023/12/30 07:19:50;;;;;;;;;;;5.80;99.90;;;;;;5025859;28;20696;-65
2023/12/30 07:22:19;;;;;;;16.60;1.80;;;5.80;99.90;;;;;;5030841;28;19964;-65
2023/12/30 07:24:45;;;;;;;12.13;1.52;;;5.80;99.90;;;;;;5028776;28;20136;-65
2023/12/30 07:27:11;;;;;;;12.80;2.17;;;5.80;99.90;;;;;;5029988;28;20556;-65
2023/12/30 07:29:36;;;;;;;13.05;0.90;;;5.80;99.90;;;;;;5029339;28;20045;-65
2023/12/30 07:32:02;;;;;;;12.50;1.17;;;5.80;99.90;;;;;;5030795;28;20038;-65
2023/12/30 07:34:28;;;;;;;9.55;1.00;;;5.80;99.90;;;;;;5030293;28;20029;-65
2023/12/30 07:36:54;;;;;;;14.70;1.60;;;5.80;99.90;;;;;;5031000;28;20052;-65
2023/12/30 07:39:19;;;;;;;13.35;1.23;;;5.80;99.90;;;;;;5025975;28;20439;-65
2023/12/30 07:41:45;;;;;;;10.03;0.97;;;5.80;99.90;;;;;;5025159;28;20120;-65
2023/12/30 07:44:11;;;;;;;12.30;2.07;;;5.80;99.90;;;;;;5028684;28;20033;-65
2023/12/30 07:46:36;;;;;;;14.17;1.53;;;5.80;99.90;;;;;;5033915;28;20048;-65
2023/12/30 07:49:02;;;;;;;8.00;1.37;;;5.80;99.90;;;;;;5033897;28;20033;-65
2023/12/30 07:51:28;;;;;;;16.98;2.17;;;5.80;99.90;;;;;;5040506;28;20076;-65
2023/12/30 07:53:54;;;;;;;12.33;1.97;;;5.80;99.90;;;;;;5035310;28;20509;-64
2023/12/30 07:56:20;;;;;;;;;;;5.90;99.90;;;;;;5035472;28;20041;-64
2023/12/30 07:58:45;;;;;;;11.63;2.63;;;5.90;99.90;;;;;;5033517;28;19925;-64
2023/12/30 08:01:11;;;;;;;18.70;3.97;;;5.90;99.90;;;;;;5032324;28;20045;-65
2023/12/30 08:03:36;;;;;;;15.43;3.73;;;5.90;99.90;;;;;;5031740;28;20632;-64
2023/12/30 08:06:02;;;;;;;12.97;3.67;;;5.90;99.90;;;;;;5030228;28;20037;-65
2023/12/30 08:08:28;;;;;;;16.67;3.90;;;6.00;99.90;;;;;;5030649;28;20059;-65
2023/12/30 08:10:53;;;;;;;11.70;4.43;;;6.00;99.90;;;;;;5030662;28;20037;-65
2023/12/30 08:13:19;;;;;;;16.63;5.60;;;6.00;99.90;;;;;;5030778;28;20048;-64
2023/12/30 08:15:44;;;;;;;15.40;4.63;;;6.10;99.90;;;;;;5025770;28;20060;-63
2023/12/30 08:18:11;;;;;;;22.53;4.47;;;6.20;99.90;;;;;;5029771;28;20040;-64
2023/12/30 08:20:36;;;;;;;15.13;4.82;;;6.20;99.90;;;;;;5023484;28;20045;-64
2023/12/30 08:23:03;;;;;;;13.82;4.43;;;6.30;99.90;;;;;;5022563;28;20045;-64
2023/12/30 08:25:29;;;;;;;14.18;4.30;;;6.30;99.90;;;;;;5025977;28;20045;-63
2023/12/30 08:27:54;;;;;;;17.05;4.88;;;6.30;99.90;;;;;;5022255;28;20497;-63
2023/12/30 08:30:20;;;;;;;27.47;5.30;;;6.40;99.90;;;;;;5028247;28;20060;-63
2023/12/30 08:32:46;;;;;;;18.80;4.50;;;6.40;99.90;;;;;;5029245;28;20041;-63
2023/12/30 08:35:13;;;;;;;20.17;5.27;;;6.50;99.90;;;;;;5034952;28;20046;-63
2023/12/30 08:37:38;;;;;;;20.15;4.38;;;6.60;99.90;;;;;;5030341;28;20076;-63
2023/12/30 08:40:10;;;;;;;11.85;3.85;;;6.70;99.90;;;;;;5030444;28;20072;-63
2023/12/30 08:42:36;;;;;;;18.50;4.60;;;6.80;99.90;;;;;;5030556;28;20043;-63
2023/12/30 08:45:04;;;;;;;7.32;2.75;;;7.00;99.90;;;;;;5030328;28;20033;-63
2023/12/30 08:47:34;;;;;;;14.25;3.38;;;7.20;99.90;;;;;;5029521;28;20112;-63
2023/12/30 08:50:00;;;;;;;23.58;4.32;;;7.30;99.90;;;;;;5026797;28;20506;-64
2023/12/30 08:52:26;;;;;;;13.15;3.03;;;7.40;99.90;;;;;;5025056;28;20568;-63
2023/12/30 08:54:51;;;;;;;15.67;3.97;;;7.50;99.90;;;;;;5035718;28;20041;-63
2023/12/30 08:57:17;;;;;;;12.35;4.22;;;7.70;99.90;;;;;;5029726;28;20041;-64
2023/12/30 08:59:43;;;;;;;14.57;3.40;;;7.80;99.90;;;;;;5023271;28;20029;-64
2023/12/30 09:02:08;;;;;;;15.33;4.57;;;8.00;99.90;;;;;;5024930;28;20041;-64
2023/12/30 09:04:34;;;;;;;18.35;5.72;;;8.20;99.90;;;;;;5012513;28;20046;-64
2023/12/30 09:07:00;;;;;;;14.93;5.17;;;8.30;99.90;;;;;;5026242;28;20049;-64
2023/12/30 09:09:25;;;;;;;16.83;5.43;;;8.30;99.90;;;;;;5022179;28;20049;-64
2023/12/30 09:11:51;;;;;;;19.10;6.00;;;8.50;99.90;;;;;;5019790;28;20037;-66
2023/12/30 09:14:16;;;;;;;10.20;5.20;;;8.60;99.90;;;;;;5026163;28;20280;-66
2023/12/30 09:16:42;;;;;;;20.20;6.32;;;8.60;99.90;;;;;;5029453;28;20029;-66
2023/12/30 09:19:08;;;;;;;16.57;5.27;;;8.70;99.90;;;;;;5028665;28;20045;-66
2023/12/30 09:21:34;;;;;;;14.87;6.40;;;8.80;99.90;;;;;;5029558;28;20276;-66
2023/12/30 09:24:00;;;;;;;15.75;5.30;;;8.90;99.90;;;;;;5028720;28;20052;-65
2023/12/30 09:26:25;;;;;;;16.40;6.27;;;9.00;99.90;;;;;;5028593;28;20041;-65
2023/12/30 09:28:52;;;;;;;12.07;5.90;;;9.10;99.90;;;;;;5028359;28;20272;-66
2023/12/30 09:31:20;;;;;;;;;;;9.40;99.90;;;;;;5027996;28;20594;-66
2023/12/30 09:33:46;;;;;;;19.85;7.55;;;9.60;99.90;;;;;;5028359;28;20015;-65
2023/12/30 09:36:12;;;;;;;17.80;5.63;;;9.70;99.90;;;;;;5027335;28;20602;-65
2023/12/30 09:38:38;;;;;;;15.80;5.97;;;9.70;99.90;;;;;;5024774;28;20043;-65
2023/12/30 09:41:04;;;;;;;19.10;5.93;;;9.80;99.90;;;;;;5018543;28;20049;-65
2023/12/30 09:43:31;;;;;;;13.52;5.07;;;9.90;99.90;;;;;;5025976;28;20121;-66
2023/12/30 09:45:57;;;;;;;13.05;6.03;;;9.80;99.90;;;;;;5027735;28;20056;-65
2023/12/30 09:48:27;;;;;;;20.50;5.57;;;9.80;99.90;;;;;;5019665;28;20041;-66
2023/12/30 09:50:56;;;;;;;12.18;4.40;;;9.80;99.90;;;;;;5028063;28;20111;-65
2023/12/30 09:53:23;;;;;;;10.45;4.47;;;9.90;99.90;;;;;;5025542;28;20083;-65
2023/12/30 09:55:53;;;;;;;13.38;3.58;;;10.00;99.90;;;;;;5027274;28;20037;-65
2023/12/30 09:58:20;;;;;;;17.58;4.13;;;10.20;99.90;;;;;;5027141;28;20037;-65
2023/12/30 10:00:46;;;;;;;12.88;3.20;;;10.40;99.90;;;;;;5026559;28;20038;-64
2023/12/30 10:03:13;;;;;;;11.27;3.28;;;10.60;99.90;;;;;;5027347;28;20102;-64
2023/12/30 10:05:39;;;;;;;11.90;3.35;;;10.60;99.90;;;;;;5027740;28;20048;-64
2023/12/30 10:08:06;;;;;;;14.15;4.13;;;10.60;99.90;;;;;;5028565;28;20563;-65
2023/12/30 10:10:42;;;;;;;;;;;10.60;99.90;;;;;;5026054;28;20045;-65
2023/12/30 10:13:09;;;;;;;13.15;3.40;;;10.60;99.90;;;;;;5026514;28;20305;-64
2023/12/30 10:15:34;;;;;;;;;;;10.70;99.90;;;;;;5031497;28;20037;-65
2023/12/30 10:18:00;;;;;;;12.35;2.88;;;10.80;99.90;;;;;;5020623;28;19917;-65
2023/12/30 10:20:25;;;;;;;6.23;2.23;;;10.90;99.90;;;;;;5028048;28;20110;-65
2023/12/30 10:22:51;;;;;;;19.20;1.93;;;11.00;99.90;;;;;;5027349;28;20418;-64
2023/12/30 10:25:17;;;;;;;5.13;1.27;;;11.20;99.90;;;;;;5028899;28;20276;-64
2023/12/30 10:27:47;;;;;;;12.10;1.40;;;11.20;99.90;;;;;;5031307;28;20038;-63
2023/12/30 10:30:17;;;;;;;5.72;1.10;;;11.10;99.90;;;;;;5032022;28;20044;-63
2023/12/30 10:32:42;;;;;;;8.75;1.42;;;10.80;99.90;;;;;;5026498;28;20046;-63
2023/12/30 10:35:08;;;;;;;9.77;1.20;;;10.80;99.90;;;;;;5025732;28;20038;-64
2023/12/30 10:37:35;;;;;;;10.48;1.38;;;11.00;99.90;;;;;;5026014;28;20035;-64
2023/12/30 10:40:02;;;;;;;11.10;2.28;;;11.30;99.90;;;;;;5026242;28;20095;-63
2023/12/30 10:42:28;;;;;;;16.90;2.58;;;11.60;99.90;;;;;;5027141;28;20121;-64
2023/12/30 10:44:54;;;;;;;8.57;1.57;;;11.70;99.90;;;;;;5026617;28;20188;-64
2023/12/30 10:47:21;;;;;;;7.40;1.53;;;12.00;99.90;;;;;;5026323;28;20272;-64
2023/12/30 10:49:52;;;;;;;8.95;1.73;;;12.20;99.90;;;;;;5027360;28;20276;-63
2023/12/30 10:52:22;;;;;;;12.57;1.80;;;12.50;99.90;;;;;;5026389;28;20084;-64
2023/12/30 10:55:01;;;;;;;8.38;1.70;;;12.80;99.90;;;;;;5025612;28;20040;-64
2023/12/30 10:57:31;;;;;;;7.93;1.30;;;13.00;99.90;;;;;;5025970;28;20065;-64
2023/12/30 10:59:58;;;;;;;13.80;2.60;;;13.00;99.90;;;;;;5026513;28;20067;-64
2023/12/30 11:02:25;;;;;;;10.50;1.52;;;13.00;99.90;;;;;;5023901;28;20041;-64
2023/12/30 11:04:51;;;;;;;11.65;2.35;;;13.00;99.90;;;;;;5025391;28;20045;-64
2023/12/30 11:07:20;;;;;;;10.13;2.90;;;13.00;99.90;;;;;;5026209;28;20056;-64
2023/12/30 11:09:47;;;;;;;9.05;2.10;;;13.10;99.90;;;;;;5026522;28;20167;-64
2023/12/30 11:12:13;;;;;;;16.05;2.53;;;13.50;99.90;;;;;;5026886;28;20049;-64
2023/12/30 11:14:38;;;;;;;13.25;1.95;;;13.80;99.90;;;;;;5028006;28;20033;-64
2023/12/30 11:17:04;;;;;;;9.18;2.30;;;14.10;99.90;;;;;;5024430;28;20045;-64
2023/12/30 11:19:32;;;;;;;9.77;1.73;;;14.30;99.90;;;;;;5026802;28;20083;-64
2023/12/30 11:22:06;;;;;;;11.30;2.10;;;14.60;99.90;;;;;;5025230;28;20069;-64
2023/12/30 11:24:34;;;;;;;9.32;1.40;;;14.80;99.90;;;;;;5027206;28;20049;-64
2023/12/30 11:26:59;;;;;;;8.18;1.92;;;15.20;99.90;;;;;;5027778;28;20056;-64
2023/12/30 11:29:27;;;;;;;10.95;2.10;;;15.60;99.90;;;;;;5031252;28;20045;-64
2023/12/30 11:31:55;;;;;;;11.80;1.50;;;15.50;99.90;;;;;;5030565;28;20120;-64
2023/12/30 11:34:22;;;;;;;9.77;1.38;;;15.10;99.90;;;;;;5029582;28;20033;-64
2023/12/30 11:36:49;;;;;;;9.98;2.20;;;14.90;99.90;;;;;;5029798;28;20034;-64
2023/12/30 11:39:30;;;;;;;11.48;2.22;;;14.90;99.90;;;;;;5030429;28;20033;-64
2023/12/30 11:42:00;;;;;;;11.93;1.88;;;14.90;99.90;;;;;;5030062;28;20152;-64
2023/12/30 11:44:27;;;;;;;9.30;2.20;;;15.20;99.90;;;;;;5026988;28;20099;-64
2023/12/30 11:46:53;;;;;;;9.93;2.58;;;15.40;99.90;;;;;;5027772;28;20648;-63
2023/12/30 11:49:23;;;;;;;12.38;1.77;;;15.40;99.90;;;;;;5026676;28;20061;-64
2023/12/30 11:51:49;;;;;;;10.52;1.77;;;15.10;99.90;;;;;;5025698;28;20527;-64
2023/12/30 11:54:15;;;;;;;20.30;2.83;;;14.40;99.90;;;;;;5011941;28;20036;-64
2023/12/30 11:56:42;;;;;;;8.95;2.28;;;13.80;99.90;;;;;;5030113;28;20132;-65
2023/12/30 11:59:08;;;;;;;12.35;2.15;;;13.30;99.90;;;;;;5027176;28;20088;-65
2023/12/30 12:01:34;;;;;;;12.00;3.20;;;12.90;99.90;;;;;;5029639;28;20478;-65
2023/12/30 12:04:00;;;;;;;12.55;2.40;;;12.70;99.90;;;;;;5011946;28;20051;-65
2023/12/30 12:06:25;;;;;;;16.52;3.00;;;12.50;99.90;;;;;;5022627;28;20057;-65
2023/12/30 12:08:51;;;;;;;10.48;2.63;;;12.40;99.90;;;;;;5028121;28;20080;-64
2023/12/30 12:11:17;;;;;;;15.25;2.25;;;12.10;99.90;;;;;;5029494;28;20043;-65
2023/12/30 12:13:42;;;;;;;12.95;2.97;;;11.60;99.90;;;;;;5028808;28;20042;-65
2023/12/30 12:16:08;;;;;;;14.43;3.08;;;11.30;99.90;;;;;;5028423;28;20116;-65
2023/12/30 12:18:34;;;;;;;11.88;2.85;;;10.90;99.90;;;;;;5029888;28;20034;-65
2023/12/30 12:21:03;;;;;;;17.08;4.00;;;10.60;99.90;;;;;;5011166;28;20037;-65
2023/12/30 12:23:30;;;;;;;14.98;3.17;;;10.40;99.90;;;;;;5028524;28;20428;-64
2023/12/30 12:25:57;;;;;;;19.85;3.42;;;10.10;99.90;;;;;;5028536;28;20077;-65
2023/12/30 12:28:23;;;;;;;13.70;3.53;;;10.00;99.90;;;;;;5022091;28;20544;-65
2023/12/30 12:30:49;;;;;;;10.45;2.85;;;9.80;99.90;;;;;;5028419;28;20033;-65
2023/12/30 12:33:17;;;;;;;10.13;2.80;;;9.70;99.90;;;;;;5027122;28;20124;-65
2023/12/30 12:35:43;;;;;;;20.23;3.28;;;9.70;99.90;;;;;;5028840;28;20069;-65
2023/12/30 12:38:28;;;;;;;15.95;3.50;;;9.60;99.90;;;;;;5028039;28;20043;-65
2023/12/30 12:40:53;;;;;;;18.08;3.42;;;9.50;99.90;;;;;;5022374;28;20418;-65
2023/12/30 12:43:19;;;;;;;18.33;4.07;;;9.40;99.90;;;;;;5028045;28;20041;-65
2023/12/30 12:49:26;;;;;;;21.90;4.45;;;9.30;99.90;;;;;;5012136;28;20314;-65